createdAt,value
2023-04-16T00:00:43.861Z,1.56
2023-04-16T00:03:11.862Z,1.43
2023-04-16T00:05:38.743Z,1.37
2023-04-16T00:08:05.485Z,1.42
2023-04-16T00:10:32.264Z,1.54
2023-04-16T00:12:58.971Z,1.49
2023-04-16T00:15:25.845Z,1.54
2023-04-16T00:17:52.731Z,1.43
2023-04-16T00:20:19.805Z,1.49
2023-04-16T00:22:46.738Z,1.30
2023-04-16T00:25:14.236Z,1.38
2023-04-16T00:27:40.947Z,1.27
2023-04-16T00:30:08.195Z,1.48
2023-04-16T00:32:35.093Z,2.57
2023-04-16T00:35:01.882Z,1.58
2023-04-16T00:37:28.562Z,1.51
2023-04-16T00:39:55.285Z,1.53
2023-04-16T00:42:22.011Z,1.38
2023-04-16T00:44:48.749Z,1.53
2023-04-16T00:47:16.068Z,1.78
2023-04-16T00:49:42.945Z,1.86
2023-04-16T00:52:11.528Z,1.82
2023-04-16T00:54:38.286Z,1.68
2023-04-16T00:57:05.444Z,1.59
2023-04-16T00:59:32.523Z,1.83
2023-04-16T01:01:59.569Z,1.80
2023-04-16T01:04:26.720Z,1.77
2023-04-16T01:06:53.900Z,1.73
2023-04-16T01:09:20.647Z,1.67
2023-04-16T01:15:40.325Z,2.52
2023-04-16T01:18:16.904Z,2.49
2023-04-16T01:20:44.186Z,2.24
2023-04-16T01:23:10.919Z,2.15
2023-04-16T01:25:38.608Z,1.98
2023-04-16T01:28:06.019Z,2.11
2023-04-16T01:30:32.803Z,1.98
2023-04-16T01:33:00.368Z,1.70
2023-04-16T01:35:27.262Z,1.85
2023-04-16T01:37:54.130Z,1.54
2023-04-16T01:40:20.943Z,1.61
2023-04-16T01:46:41.415Z,1.51
2023-04-16T01:49:08.979Z,1.61
2023-04-16T01:51:35.819Z,1.73
2023-04-16T01:54:02.543Z,1.62
2023-04-16T01:56:29.440Z,1.47
2023-04-16T01:58:56.134Z,1.56
2023-04-16T02:01:23.088Z,1.47
2023-04-16T02:03:50.106Z,1.58
2023-04-16T02:06:17.049Z,1.48
2023-04-16T02:08:43.758Z,1.43
2023-04-16T02:11:10.597Z,1.50
2023-04-16T02:13:37.654Z,1.51
2023-04-16T02:16:04.530Z,1.47
2023-04-16T02:18:31.373Z,1.65
2023-04-16T02:20:58.682Z,1.67
2023-04-16T02:23:25.524Z,1.70
2023-04-16T02:25:52.400Z,1.66
2023-04-16T02:28:19.147Z,1.69
2023-04-16T02:30:45.989Z,1.83
2023-04-16T02:33:12.865Z,1.82
2023-04-16T02:35:40.196Z,1.84
2023-04-16T02:38:07.201Z,2.15
2023-04-16T02:40:34.116Z,2.05
2023-04-16T02:43:01.236Z,2.08
2023-04-16T02:45:28.956Z,2.19
2023-04-16T02:47:55.696Z,2.21
2023-04-16T02:50:22.492Z,2.27
2023-04-16T02:52:49.246Z,2.15
2023-04-16T02:55:16.087Z,2.32
2023-04-16T02:57:42.961Z,2.01
2023-04-16T03:00:10.159Z,2.01
2023-04-16T03:02:36.976Z,2.22
2023-04-16T03:05:04.291Z,2.13
2023-04-16T03:07:31.130Z,1.85
2023-04-16T03:09:57.831Z,1.69
2023-04-16T03:12:24.505Z,1.66
2023-04-16T03:14:51.582Z,1.46
2023-04-16T03:17:18.311Z,2.02
2023-04-16T03:19:45.101Z,1.93
2023-04-16T03:22:11.931Z,1.58
2023-04-16T03:24:38.700Z,1.65
2023-04-16T03:27:05.450Z,1.89
2023-04-16T03:29:32.204Z,1.72
2023-04-16T03:31:59.058Z,1.65
2023-04-16T03:34:25.892Z,1.79
2023-04-16T03:36:52.706Z,1.88
2023-04-16T03:39:19.483Z,2.00
2023-04-16T03:45:26.834Z,1.84
2023-04-16T03:47:53.749Z,1.89
2023-04-16T03:50:20.552Z,2.10
2023-04-16T03:52:53.750Z,1.93
2023-04-16T03:55:22.031Z,2.11
2023-04-16T03:57:49.084Z,2.05
2023-04-16T04:00:15.862Z,2.09
2023-04-16T04:02:42.869Z,2.18
2023-04-16T04:05:10.897Z,2.21
2023-04-16T04:07:38.061Z,2.45
2023-04-16T04:10:05.069Z,2.60
2023-04-16T04:12:32.270Z,2.49
2023-04-16T04:14:59.067Z,2.13
2023-04-16T04:21:13.325Z,2.55
2023-04-16T04:23:40.056Z,2.58
2023-04-16T04:26:06.837Z,2.55
2023-04-16T04:28:33.673Z,2.52
2023-04-16T04:31:00.394Z,2.39
2023-04-16T04:33:27.352Z,2.16
2023-04-16T04:35:54.491Z,2.19
2023-04-16T04:38:21.205Z,2.21
2023-04-16T04:40:51.464Z,2.42
2023-04-16T04:43:19.306Z,2.49
2023-04-16T04:45:46.122Z,2.31
2023-04-16T04:48:13.531Z,2.43
2023-04-16T04:50:41.065Z,2.20
2023-04-16T04:53:07.901Z,2.18
2023-04-16T04:55:35.017Z,2.21
2023-04-16T04:58:02.564Z,2.34
2023-04-16T05:00:29.606Z,2.38
2023-04-16T05:02:57.519Z,2.59
2023-04-16T05:05:26.034Z,2.56
2023-04-16T05:07:52.871Z,2.60
2023-04-16T05:10:19.745Z,2.83
2023-04-16T05:12:48.858Z,3.15
2023-04-16T05:15:16.348Z,2.82
2023-04-16T05:17:43.152Z,3.13
2023-04-16T05:20:09.990Z,3.72
2023-04-16T05:22:36.752Z,3.91
2023-04-16T05:25:03.573Z,4.27
2023-04-16T05:27:30.294Z,4.08
2023-04-16T05:29:57.421Z,4.42
2023-04-16T05:32:25.863Z,4.10
2023-04-16T05:34:52.768Z,4.03
2023-04-16T05:37:19.490Z,4.33
2023-04-16T05:39:46.181Z,4.30
2023-04-16T05:42:13.809Z,4.29
2023-04-16T05:44:40.621Z,4.12
2023-04-16T05:47:07.364Z,3.98
2023-04-16T05:49:34.252Z,4.96
2023-04-16T05:52:00.914Z,4.89
2023-04-16T05:54:27.996Z,4.05
2023-04-16T05:56:54.688Z,3.57
2023-04-16T05:59:21.369Z,4.19
2023-04-16T06:01:48.151Z,4.37
2023-04-16T06:04:15.336Z,4.49
2023-04-16T06:06:42.108Z,4.20
2023-04-16T06:09:08.973Z,3.85
2023-04-16T06:12:15.060Z,4.19
2023-04-16T06:14:41.776Z,4.16
2023-04-16T06:17:08.876Z,4.56
2023-04-16T06:19:35.566Z,4.31
2023-04-16T06:22:02.378Z,4.17
2023-04-16T06:24:29.088Z,4.03
2023-04-16T06:27:37.913Z,3.85
2023-04-16T06:30:06.061Z,4.33
2023-04-16T06:32:32.793Z,4.30
2023-04-16T06:35:01.446Z,4.22
2023-04-16T06:37:28.232Z,3.99
2023-04-16T06:39:54.965Z,3.98
2023-04-16T06:42:21.639Z,3.80
2023-04-16T06:44:51.636Z,3.56
2023-04-16T06:47:18.485Z,3.47
2023-04-16T06:49:45.196Z,3.44
2023-04-16T06:52:14.895Z,3.54
2023-04-16T06:54:41.613Z,3.67
2023-04-16T06:57:08.453Z,3.35
2023-04-16T06:59:35.189Z,3.83
2023-04-16T07:02:02.129Z,3.84
2023-04-16T07:04:29.006Z,3.25
2023-04-16T07:06:56.092Z,3.17
2023-04-16T07:09:22.826Z,3.29
2023-04-16T07:11:50.966Z,3.02
2023-04-16T07:14:17.652Z,3.19
2023-04-16T07:17:15.549Z,3.18
2023-04-16T07:19:42.527Z,3.23
2023-04-16T07:22:10.277Z,3.47
2023-04-16T07:24:36.989Z,3.72
2023-04-16T07:27:03.885Z,3.75
2023-04-16T07:29:30.776Z,3.66
2023-04-16T07:32:23.848Z,4.40
2023-04-16T07:34:51.776Z,5.09
2023-04-16T07:37:18.605Z,5.36
2023-04-16T07:39:45.370Z,5.73
2023-04-16T07:42:12.119Z,5.96
2023-04-16T07:44:39.036Z,6.03
2023-04-16T07:47:06.075Z,6.62
2023-04-16T07:49:32.807Z,6.68
2023-04-16T07:51:59.479Z,6.75
2023-04-16T07:54:27.806Z,6.63
2023-04-16T07:56:55.903Z,6.13
2023-04-16T07:59:24.261Z,5.77
2023-04-16T08:01:52.620Z,5.13
2023-04-16T08:04:19.489Z,5.66
2023-04-16T08:06:46.454Z,5.24
2023-04-16T08:09:13.140Z,5.50
2023-04-16T08:11:39.890Z,5.67
2023-04-16T08:14:06.651Z,6.01
2023-04-16T08:16:33.397Z,6.27
2023-04-16T08:19:00.264Z,6.55
2023-04-16T08:21:28.771Z,6.11
2023-04-16T08:23:55.986Z,6.77
2023-04-16T08:26:23.251Z,7.40
2023-04-16T08:28:50.470Z,7.94
2023-04-16T08:31:17.278Z,7.46
2023-04-16T08:33:44.101Z,7.36
2023-04-16T08:36:10.926Z,8.44
2023-04-16T08:38:37.676Z,8.40
2023-04-16T08:41:06.177Z,8.49
2023-04-16T08:43:37.617Z,8.66
2023-04-16T08:46:05.364Z,8.79
2023-04-16T08:48:43.084Z,8.68
2023-04-16T08:51:10.606Z,8.43
2023-04-16T08:53:43.574Z,8.15
2023-04-16T08:56:10.801Z,7.83
2023-04-16T08:58:38.031Z,7.02
2023-04-16T09:01:05.146Z,6.93
2023-04-16T09:03:34.822Z,6.77
2023-04-16T09:06:03.021Z,6.65
2023-04-16T09:08:29.839Z,6.94
2023-04-16T09:10:56.649Z,7.10
2023-04-16T09:13:23.355Z,6.93
2023-04-16T09:15:53.816Z,6.87
2023-04-16T09:18:20.606Z,7.33
2023-04-16T09:20:48.567Z,7.35
2023-04-16T09:23:15.255Z,7.11
2023-04-16T09:25:42.365Z,7.20
2023-04-16T09:28:12.356Z,7.30
2023-04-16T09:30:39.051Z,7.25
2023-04-16T09:33:17.048Z,7.67
2023-04-16T09:35:48.089Z,7.45
2023-04-16T09:38:16.013Z,7.54
2023-04-16T09:40:42.709Z,7.33
2023-04-16T09:43:16.633Z,7.97
2023-04-16T09:45:50.680Z,7.68
2023-04-16T09:48:30.551Z,7.44
2023-04-16T09:50:58.004Z,7.23
2023-04-16T09:53:31.315Z,7.19
2023-04-16T09:55:58.869Z,7.01
2023-04-16T09:58:25.821Z,7.03
2023-04-16T10:01:14.557Z,6.94
2023-04-16T10:03:41.384Z,6.75
2023-04-16T10:06:15.376Z,6.95
2023-04-16T10:08:50.272Z,7.22
2023-04-16T10:11:17.416Z,7.92
2023-04-16T10:13:44.213Z,7.43
2023-04-16T10:16:10.969Z,6.90
2023-04-16T10:18:39.183Z,7.01
2023-04-16T10:21:06.322Z,7.35
2023-04-16T10:23:33.914Z,7.14
2023-04-16T10:26:01.772Z,7.23
2023-04-16T10:28:28.534Z,6.79
2023-04-16T10:30:58.540Z,6.80
2023-04-16T10:33:28.715Z,6.76
2023-04-16T10:36:12.190Z,7.02
2023-04-16T10:38:47.465Z,6.84
2023-04-16T10:41:14.359Z,6.88
2023-04-16T10:43:46.530Z,7.11
2023-04-16T10:46:23.756Z,7.04
2023-04-16T10:48:53.005Z,7.13
2023-04-16T10:51:33.535Z,6.85
2023-04-16T10:54:04.865Z,6.91
2023-04-16T10:56:37.537Z,6.58
2023-04-16T10:59:09.221Z,6.93
2023-04-16T11:01:43.728Z,6.85
2023-04-16T11:04:22.303Z,7.06
2023-04-16T11:07:04.001Z,6.91
2023-04-16T11:10:01.620Z,6.68
2023-04-16T11:12:40.292Z,6.49
2023-04-16T11:15:07.826Z,6.77
2023-04-16T11:17:50.720Z,7.03
2023-04-16T11:20:21.367Z,6.68
2023-04-16T11:22:52.368Z,6.70
2023-04-16T11:25:22.890Z,6.83
2023-04-16T11:27:50.213Z,6.55
2023-04-16T11:30:17.023Z,6.32
2023-04-16T11:32:44.263Z,6.42
2023-04-16T11:35:15.593Z,7.41
2023-04-16T11:37:42.308Z,7.46
2023-04-16T11:40:09.597Z,7.12
2023-04-16T11:42:40.250Z,6.93
2023-04-16T11:45:11.480Z,6.89
2023-04-16T11:47:47.762Z,6.69
2023-04-16T11:50:28.105Z,6.76
2023-04-16T11:52:56.613Z,7.28
2023-04-16T11:55:24.545Z,7.22
2023-04-16T11:57:52.052Z,7.39
2023-04-16T12:00:24.709Z,7.33
2023-04-16T12:02:54.262Z,7.04
2023-04-16T12:05:34.246Z,7.27
2023-04-16T12:08:02.582Z,7.59
2023-04-16T12:10:29.709Z,7.86
2023-04-16T12:13:15.562Z,7.67
2023-04-16T12:15:44.980Z,7.49
2023-04-16T12:18:11.700Z,7.56
2023-04-16T12:20:45.240Z,7.58
2023-04-16T12:23:30.400Z,7.79
2023-04-16T12:25:57.752Z,7.74
2023-04-16T12:28:44.137Z,8.00
2023-04-16T12:31:12.340Z,8.20
2023-04-16T12:33:39.051Z,8.17
2023-04-16T12:39:39.827Z,8.87
2023-04-16T12:42:06.521Z,8.64
2023-04-16T12:44:33.235Z,8.40
2023-04-16T12:47:00.123Z,8.58
2023-04-16T12:49:26.987Z,8.20
2023-04-16T12:55:41.755Z,8.69
2023-04-16T12:58:11.142Z,8.79
2023-04-16T13:00:39.557Z,8.66
2023-04-16T13:03:06.771Z,8.57
2023-04-16T13:05:33.794Z,8.71
2023-04-16T13:08:00.678Z,8.44
2023-04-16T13:10:27.372Z,8.64
2023-04-16T13:12:54.233Z,8.72
2023-04-16T13:15:20.969Z,13.89
2023-04-16T13:17:48.817Z,8.75
2023-04-16T13:20:15.504Z,8.15
2023-04-16T13:22:42.692Z,8.42
2023-04-16T13:25:09.846Z,10.63
2023-04-16T13:27:36.981Z,8.28
2023-04-16T13:30:03.824Z,8.12
2023-04-16T13:32:31.670Z,8.21
2023-04-16T13:34:58.920Z,8.16
2023-04-16T13:37:30.909Z,17.37
2023-04-16T13:39:57.738Z,8.40
2023-04-16T13:42:24.714Z,8.55
2023-04-16T13:44:51.466Z,8.21
2023-04-16T13:47:18.174Z,7.91
2023-04-16T13:49:45.590Z,7.61
2023-04-16T13:52:12.434Z,11.32
2023-04-16T13:54:39.494Z,40.25
2023-04-16T13:57:06.244Z,23.71
2023-04-16T13:59:33.474Z,20.87
2023-04-16T14:02:00.241Z,19.06
2023-04-16T14:04:27.758Z,10.87
2023-04-16T14:06:54.890Z,7.70
2023-04-16T14:09:21.563Z,8.19
2023-04-16T14:11:48.645Z,7.70
2023-04-16T14:14:15.407Z,7.98
2023-04-16T14:16:42.354Z,8.47
2023-04-16T14:19:09.502Z,7.97
2023-04-16T14:21:36.624Z,8.16
2023-04-16T14:24:04.221Z,7.96
2023-04-16T14:26:31.127Z,8.06
2023-04-16T14:28:58.261Z,7.91
2023-04-16T14:31:27.064Z,9.65
2023-04-16T14:33:53.758Z,8.60
2023-04-16T14:36:20.458Z,11.51
2023-04-16T14:38:50.207Z,10.28
2023-04-16T14:41:18.110Z,10.57
2023-04-16T14:43:44.818Z,11.15
2023-04-16T14:46:11.577Z,10.76
2023-04-16T14:48:38.885Z,10.79
2023-04-16T14:51:05.617Z,10.65
2023-04-16T14:53:32.718Z,11.64
2023-04-16T14:55:59.490Z,12.93
2023-04-16T14:58:26.601Z,10.86
2023-04-16T15:00:53.662Z,11.98
2023-04-16T15:03:20.839Z,11.45
2023-04-16T15:05:47.782Z,13.92
2023-04-16T15:08:14.824Z,9.18
2023-04-16T15:10:41.621Z,14.42
2023-04-16T15:13:09.105Z,13.40
2023-04-16T15:15:36.184Z,10.27
2023-04-16T15:18:03.951Z,9.26
2023-04-16T15:20:30.796Z,8.58
2023-04-16T15:22:57.875Z,9.01
2023-04-16T15:25:24.903Z,9.18
2023-04-16T15:27:52.399Z,8.53
2023-04-16T15:30:19.302Z,8.81
2023-04-16T15:32:46.100Z,9.78
2023-04-16T15:35:13.843Z,8.50
2023-04-16T15:37:41.573Z,9.43
2023-04-16T15:40:08.414Z,10.02
2023-04-16T15:42:35.144Z,11.53
2023-04-16T15:45:01.987Z,9.19
2023-04-16T15:47:29.918Z,9.31
2023-04-16T15:49:57.301Z,17.36
2023-04-16T15:52:24.338Z,10.29
2023-04-16T15:54:51.068Z,10.80
2023-04-16T15:57:17.809Z,15.04
2023-04-16T15:59:53.065Z,9.94
2023-04-16T16:02:32.788Z,9.50
2023-04-16T16:04:59.680Z,9.64
2023-04-16T16:07:26.609Z,10.34
2023-04-16T16:09:53.527Z,13.96
2023-04-16T16:12:20.268Z,10.13
2023-04-16T16:14:47.012Z,8.82
2023-04-16T16:17:14.655Z,9.33
2023-04-16T16:19:41.365Z,18.11
2023-04-16T16:22:09.165Z,24.98
2023-04-16T16:24:38.809Z,35.78
2023-04-16T16:27:06.208Z,38.99
2023-04-16T16:29:33.045Z,12.43
2023-04-16T16:32:00.256Z,47.37
2023-04-16T16:34:27.796Z,63.94
2023-04-16T16:36:55.725Z,26.98
2023-04-16T16:39:23.125Z,34.61
2023-04-16T16:41:50.396Z,19.16
2023-04-16T16:44:17.658Z,12.49
2023-04-16T16:46:47.994Z,10.62
2023-04-16T16:49:15.503Z,37.36
2023-04-16T16:51:42.412Z,76.86
2023-04-16T16:54:09.693Z,55.19
2023-04-16T16:56:38.783Z,12.04
2023-04-16T16:59:05.527Z,25.60
2023-04-16T17:01:32.406Z,8.57
2023-04-16T17:03:59.239Z,26.32
2023-04-16T17:06:26.616Z,38.52
2023-04-16T17:08:53.943Z,25.94
2023-04-16T17:11:20.968Z,31.00
2023-04-16T17:13:48.111Z,34.71
2023-04-16T17:16:15.001Z,103.17
2023-04-16T17:18:42.114Z,28.91
2023-04-16T17:21:09.221Z,16.32
2023-04-16T17:23:36.207Z,18.92
2023-04-16T17:26:02.939Z,8.94
2023-04-16T17:28:29.939Z,7.58
2023-04-16T17:30:57.014Z,13.05
2023-04-16T17:33:23.772Z,11.81
2023-04-16T17:35:50.532Z,16.28
2023-04-16T17:38:17.836Z,16.34
2023-04-16T17:40:44.581Z,17.33
2023-04-16T17:43:11.428Z,11.82
2023-04-16T17:45:38.608Z,41.50
2023-04-16T17:48:10.469Z,20.00
2023-04-16T17:50:58.071Z,9.15
2023-04-16T17:53:24.904Z,8.17
2023-04-16T17:55:54.571Z,7.83
2023-04-16T17:58:22.987Z,8.78
2023-04-16T18:00:49.754Z,15.85
2023-04-16T18:03:16.578Z,8.64
2023-04-16T18:05:43.522Z,7.56
2023-04-16T18:08:10.434Z,17.33
2023-04-16T18:10:38.468Z,7.84
2023-04-16T18:13:05.204Z,18.59
2023-04-16T18:15:35.664Z,12.80
2023-04-16T18:18:02.518Z,9.74
2023-04-16T18:20:30.296Z,13.39
2023-04-16T18:22:57.357Z,7.88
2023-04-16T18:25:33.680Z,9.38
2023-04-16T18:28:02.172Z,10.17
2023-04-16T18:30:29.463Z,11.37
2023-04-16T18:33:19.514Z,11.49
2023-04-16T18:35:42.902Z,10.79
2023-04-16T18:38:15.146Z,10.89
2023-04-16T18:40:41.885Z,17.13
2023-04-16T18:43:09.069Z,12.09
2023-04-16T18:45:36.218Z,11.10
2023-04-16T18:48:03.094Z,11.23
2023-04-16T18:50:31.142Z,11.54
2023-04-16T18:52:58.340Z,11.57
2023-04-16T18:55:25.160Z,12.09
2023-04-16T18:57:51.980Z,12.04
2023-04-16T19:00:18.763Z,11.50
2023-04-16T19:02:45.659Z,11.90
2023-04-16T19:05:12.529Z,12.43
2023-04-16T19:07:39.235Z,11.91
2023-04-16T19:10:07.979Z,12.48
2023-04-16T19:12:35.333Z,11.96
2023-04-16T19:15:02.097Z,11.99
2023-04-16T19:17:29.260Z,11.76
2023-04-16T19:19:57.023Z,11.66
2023-04-16T19:22:24.096Z,11.76
2023-04-16T19:24:53.775Z,11.72
2023-04-16T19:27:28.905Z,11.66
2023-04-16T19:29:55.605Z,10.82
2023-04-16T19:32:22.316Z,10.18
2023-04-16T19:34:49.057Z,10.09
2023-04-16T19:37:15.809Z,9.78
2023-04-16T19:39:43.553Z,9.93
2023-04-16T19:42:10.300Z,9.72
2023-04-16T19:44:38.657Z,9.81
2023-04-16T19:47:06.046Z,9.62
2023-04-16T19:49:34.584Z,9.48
2023-04-16T19:52:01.406Z,9.68
2023-04-16T19:54:28.849Z,10.22
2023-04-16T19:56:57.804Z,10.43
2023-04-16T19:59:25.768Z,10.50
2023-04-16T20:01:53.089Z,9.85
2023-04-16T20:04:19.892Z,10.06
2023-04-16T20:06:47.828Z,10.27
2023-04-16T20:09:14.557Z,11.08
2023-04-16T20:11:41.302Z,10.39
2023-04-16T20:14:08.681Z,10.32
2023-04-16T20:16:35.751Z,10.96
2023-04-16T20:19:05.181Z,11.15
2023-04-16T20:21:33.577Z,10.80
2023-04-16T20:24:00.681Z,10.82
2023-04-16T20:26:30.050Z,10.52
2023-04-16T20:28:56.992Z,10.33
2023-04-16T20:31:24.111Z,9.76
2023-04-16T20:33:50.827Z,9.59
2023-04-16T20:36:17.600Z,8.76
2023-04-16T20:38:44.347Z,8.34
2023-04-16T20:41:31.516Z,8.06
2023-04-16T20:43:58.561Z,7.61
2023-04-16T20:46:25.452Z,7.52
2023-04-16T20:48:52.203Z,7.31
2023-04-16T20:51:19.040Z,7.09
2023-04-16T20:53:45.788Z,7.11
2023-04-16T20:56:12.603Z,7.51
2023-04-16T20:58:39.294Z,7.04
2023-04-16T21:01:06.421Z,6.80
2023-04-16T21:03:34.668Z,6.76
2023-04-16T21:06:01.453Z,6.47
2023-04-16T21:08:28.191Z,6.38
2023-04-16T21:11:08.022Z,6.24
2023-04-16T21:13:34.763Z,6.09
2023-04-16T21:16:01.532Z,5.90
2023-04-16T21:18:28.221Z,5.64
2023-04-16T21:20:56.046Z,5.44
2023-04-16T21:23:22.890Z,5.55
2023-04-16T21:25:49.815Z,5.73
2023-04-16T21:28:16.872Z,5.34
2023-04-16T21:30:43.637Z,5.70
2023-04-16T21:33:10.664Z,6.02
2023-04-16T21:35:37.452Z,6.12
2023-04-16T21:38:04.166Z,6.26
2023-04-16T21:40:31.019Z,6.21
2023-04-16T21:42:57.816Z,6.03
2023-04-16T21:45:24.586Z,5.94
2023-04-16T21:47:55.562Z,5.94
2023-04-16T21:50:22.466Z,5.62
2023-04-16T21:52:49.301Z,6.10
2023-04-16T21:55:16.047Z,6.11
2023-04-16T21:57:42.863Z,6.25
2023-04-16T22:00:10.024Z,6.81
2023-04-16T22:02:37.301Z,6.45
2023-04-16T22:05:04.369Z,7.00
2023-04-16T22:07:31.066Z,7.51
2023-04-16T22:09:57.751Z,7.83
2023-04-16T22:12:24.452Z,7.48
2023-04-16T22:17:22.477Z,7.94
2023-04-16T22:19:49.204Z,7.22
2023-04-16T22:22:16.192Z,7.73
2023-04-16T22:24:42.871Z,7.78
2023-04-16T22:27:09.737Z,7.53
2023-04-16T22:29:36.441Z,7.68
2023-04-16T22:32:03.316Z,8.51
2023-04-16T22:34:30.354Z,8.23
2023-04-16T22:36:57.421Z,7.96
2023-04-16T22:39:24.199Z,8.14
2023-04-16T22:41:50.894Z,8.40
2023-04-16T22:44:17.965Z,8.24
2023-04-16T22:46:44.672Z,8.12
2023-04-16T22:49:12.116Z,8.66
2023-04-16T22:51:38.947Z,8.32
2023-04-16T22:54:06.301Z,8.16
2023-04-16T22:56:33.533Z,7.83
2023-04-16T22:59:00.222Z,7.75
2023-04-16T23:01:27.092Z,8.00
2023-04-16T23:03:53.926Z,7.98
2023-04-16T23:06:20.706Z,8.61
2023-04-16T23:08:47.499Z,8.61
2023-04-16T23:11:14.694Z,8.68
2023-04-16T23:13:44.534Z,8.68
2023-04-16T23:16:11.432Z,8.72
2023-04-16T23:18:38.242Z,8.81
2023-04-16T23:21:05.169Z,8.47
2023-04-16T23:23:31.961Z,8.21
2023-04-16T23:25:58.711Z,8.26
2023-04-16T23:28:25.395Z,8.68
2023-04-16T23:30:52.215Z,8.87
2023-04-16T23:33:18.954Z,9.00
2023-04-16T23:35:46.656Z,9.06
2023-04-16T23:38:13.377Z,9.62
2023-04-16T23:40:40.107Z,9.89
2023-04-16T23:43:06.848Z,9.88
2023-04-16T23:45:33.606Z,10.46
2023-04-16T23:48:00.423Z,10.59
2023-04-16T23:50:27.318Z,10.96
2023-04-16T23:52:54.008Z,11.20
2023-04-16T23:55:20.773Z,11.33
2023-04-16T23:57:47.549Z,11.41
